Time;durP1;ratioP1;P1;durP2;ratioP2;P2;SDS_P1;SDS_P2;PMS_P1;PMS_P2;Temp;Humidity;BMP_temperature;BMP_pressure;BME280_temperature;BME280_humidity;BME280_pressure;Samples;Min_cycle;Max_cycle;Signal;HPM_P1;HPM_P2
2023/01/31 00:00:02;;;;;;;20.67;10.63;;;;;;;-1.24;64.13;94286.06;5030184;28;20041;-73
2023/01/31 00:02:29;;;;;;;17.77;8.90;;;;;;;-1.15;63.23;94300.09;5047035;28;20031;-72
2023/01/31 00:04:55;;;;;;;19.88;9.80;;;;;;;-1.11;62.86;94301.63;5034382;28;20494;-73
2023/01/31 00:07:20;;;;;;;40.38;20.95;;;;;;;-1.13;64.75;94319.53;5045281;28;20033;-73
2023/01/31 00:09:46;;;;;;;46.85;24.77;;;;;;;-1.22;65.37;94329.34;5029675;28;20061;-72
2023/01/31 00:12:11;;;;;;;52.25;25.10;;;;;;;-1.11;66.29;94334.78;5049079;28;20036;-73
2023/01/31 00:14:37;;;;;;;45.80;23.30;;;;;;;-1.10;65.54;94305.81;5046615;28;20493;-72
2023/01/31 00:17:02;;;;;;;44.92;22.85;;;;;;;-1.19;65.77;94314.72;5026831;28;20351;-73
2023/01/31 00:19:27;;;;;;;43.80;22.42;;;;;;;-1.04;66.15;94342.97;5047275;28;20032;-72
2023/01/31 00:21:53;;;;;;;42.55;21.98;;;;;;;-1.02;65.58;94336.91;5012398;28;20041;-73
2023/01/31 00:24:18;;;;;;;44.72;22.50;;;;;;;-1.18;64.57;94310.44;5029665;28;20041;-72
2023/01/31 00:26:44;;;;;;;39.13;18.90;;;;;;;-1.32;64.88;94321.25;5046888;28;20049;-72
2023/01/31 00:29:10;;;;;;;35.95;18.95;;;;;;;-1.32;65.80;94310.25;5046343;28;20051;-72
2023/01/31 00:31:36;;;;;;;36.55;18.35;;;;;;;-1.19;65.75;94308.81;5044689;28;20486;-73
2023/01/31 00:34:01;;;;;;;39.20;18.77;;;;;;;-1.24;66.03;94313.28;5030225;28;20041;-72
2023/01/31 00:36:29;;;;;;;37.28;17.13;;;;;;;-1.24;67.06;94318.38;5028964;28;20091;-73
2023/01/31 00:38:56;;;;;;;33.65;16.42;;;;;;;-1.40;66.88;94308.03;5026005;28;20128;-73
2023/01/31 00:41:22;;;;;;;34.35;15.93;;;;;;;-1.35;66.81;94311.19;5011524;28;20569;-72
2023/01/31 00:43:48;;;;;;;29.40;15.23;;;;;;;-1.12;66.83;94333.09;5028793;28;20122;-73
2023/01/31 00:46:14;;;;;;;31.33;15.85;;;;;;;-1.15;67.45;94335.78;5012966;28;20062;-73
2023/01/31 00:48:39;;;;;;;31.83;16.75;;;;;;;-1.09;66.92;94335.50;5047696;28;20178;-73
2023/01/31 00:51:05;;;;;;;33.08;16.35;;;;;;;-1.19;66.97;94344.50;5046125;28;20040;-73
2023/01/31 00:53:30;;;;;;;35.15;17.25;;;;;;;-1.21;67.26;94330.97;5043317;28;20041;-73
2023/01/31 00:56:05;;;;;;;31.92;16.45;;;;;;;-1.16;66.86;94318.84;5046250;28;20503;-73
2023/01/31 00:58:30;;;;;;;38.00;17.98;;;;;;;-1.30;66.57;94322.03;5045915;28;20037;-73
2023/01/31 01:00:56;;;;;;;29.45;16.48;;;;;;;-1.26;66.87;94325.25;5045123;28;21242;-72
2023/01/31 01:03:21;;;;;;;32.60;16.70;;;;;;;-1.25;67.16;94325.19;5044675;28;20064;-72
2023/01/31 01:05:46;;;;;;;31.08;16.77;;;;;;;-1.14;66.48;94314.53;5046873;28;20043;-72
2023/01/31 01:08:12;;;;;;;31.77;15.65;;;;;;;-1.26;66.82;94317.59;5040709;28;20040;-72
2023/01/31 01:10:37;;;;;;;27.63;14.23;;;;;;;-1.22;67.65;94316.59;5045670;28;20526;-72
2023/01/31 01:13:04;;;;;;;29.45;13.82;;;;;;;-1.18;67.61;94301.06;5007323;28;20483;-72
2023/01/31 01:15:30;;;;;;;28.75;14.82;;;;;;;-1.21;67.56;94325.88;5027041;28;20098;-72
2023/01/31 01:17:55;;;;;;;23.88;13.80;;;;;;;-1.24;67.46;94331.13;5046777;28;20029;-73
2023/01/31 01:20:21;;;;;;;27.50;14.55;;;;;;;-1.29;67.62;94312.66;5029314;28;20040;-72
2023/01/31 01:22:46;;;;;;;28.42;14.82;;;;;;;-1.20;67.73;94332.63;5042570;28;20084;-72
2023/01/31 01:25:12;;;;;;;27.23;13.48;;;;;;;-1.35;67.75;94309.47;5045041;28;20419;-72
2023/01/31 01:27:37;;;;;;;30.00;13.75;;;;;;;-1.17;67.45;94333.34;5045315;28;20483;-72
2023/01/31 01:30:04;;;;;;;27.65;12.98;;;;;;;-1.25;67.88;94324.38;5046989;28;20087;-73
2023/01/31 01:32:29;;;;;;;23.67;12.52;;;;;;;-1.28;67.40;94314.28;5026405;28;20043;-72
2023/01/31 01:34:55;;;;;;;25.13;12.18;;;;;;;-1.31;67.72;94304.22;5045730;28;20029;-72
2023/01/31 01:37:20;;;;;;;26.45;12.98;;;;;;;-1.17;67.62;94314.63;5046752;28;20071;-72
2023/01/31 01:39:47;;;;;;;26.08;12.43;;;;;;;-1.24;66.49;94310.72;5046941;28;20068;-72
2023/01/31 01:42:16;;;;;;;26.08;12.55;;;;;;;-1.33;66.06;94306.03;5015249;28;20422;-73
2023/01/31 01:44:41;;;;;;;25.88;12.07;;;;;;;-1.31;65.87;94301.69;5025714;28;20107;-72
2023/01/31 01:47:26;;;;;;;27.38;13.43;;;;;;;-1.29;66.86;94292.25;5031013;28;20029;-72
2023/01/31 01:50:11;;;;;;;22.05;10.82;;;;;;;-1.49;63.48;94293.16;5018302;28;20125;-73
2023/01/31 01:52:56;;;;;;;21.70;10.30;;;;;;;-1.31;62.44;94283.84;5047062;28;20069;-72
2023/01/31 01:55:24;;;;;;;22.75;9.45;;;;;;;-1.16;60.85;94293.38;5029568;28;20037;-73
2023/01/31 01:57:53;;;;;;;18.95;9.48;;;;;;;-1.20;61.46;94274.00;5013585;28;20045;-72
2023/01/31 02:00:21;;;;;;;17.20;8.40;;;;;;;-1.09;60.40;94286.25;5013482;28;20029;-72
2023/01/31 02:02:46;;;;;;;18.92;9.25;;;;;;;-1.22;58.60;94283.44;5013482;28;20152;-72
2023/01/31 02:05:23;;;;;;;16.30;8.23;;;;;;;-1.05;57.58;94296.25;5025129;28;20121;-73
2023/01/31 02:07:48;;;;;;;16.40;8.27;;;;;;;-0.80;57.04;94301.03;5037277;28;20029;-73
2023/01/31 02:10:30;;;;;;;15.35;8.00;;;;;;;-0.65;57.21;94298.66;5016745;28;20095;-72
2023/01/31 02:12:56;;;;;;;17.70;7.40;;;;;;;-0.62;56.52;94294.22;5033391;28;20037;-72
2023/01/31 02:15:21;;;;;;;16.83;8.65;;;;;;;-0.54;56.66;94296.44;5018215;28;20069;-72
2023/01/31 02:17:47;;;;;;;9.75;5.93;;;;;;;-0.48;53.26;94288.47;5017073;28;20403;-73
2023/01/31 02:20:25;;;;;;;6.90;3.45;;;;;;;-0.33;50.15;94300.50;5049448;28;20032;-72
2023/01/31 02:23:09;;;;;;;7.55;3.58;;;;;;;-0.23;50.73;94298.31;5054721;28;20032;-73
2023/01/31 02:25:56;;;;;;;8.30;3.88;;;;;;;-0.24;50.20;94294.13;5053213;28;20075;-73
2023/01/31 02:28:21;;;;;;;8.82;3.88;;;;;;;-0.03;48.76;94316.06;5037148;28;20025;-72
2023/01/31 02:31:08;;;;;;;6.57;3.67;;;;;;;-0.03;49.61;94313.50;5052578;28;20514;-72
2023/01/31 02:33:40;;;;;;;8.15;4.07;;;;;;;0.08;48.83;94291.69;5052726;28;20047;-72
2023/01/31 02:36:34;;;;;;;6.50;4.00;;;;;;;0.02;49.14;94292.00;5054225;28;20033;-72
2023/01/31 02:39:21;;;;;;;8.95;4.50;;;;;;;0.12;50.08;94295.75;5052919;28;20616;-73
2023/01/31 02:41:54;;;;;;;8.00;4.25;;;;;;;0.10;48.45;94290.72;5053728;28;20029;-72
2023/01/31 02:47:18;;;;;;;7.03;4.03;;;;;;;0.19;47.79;94291.97;5033098;28;20040;-72
2023/01/31 02:49:55;;;;;;;6.90;3.75;;;;;;;0.09;48.94;94285.69;5038742;28;20033;-72
2023/01/31 02:52:48;;;;;;;6.88;4.15;;;;;;;0.09;48.21;94303.56;5036791;28;20037;-72
2023/01/31 02:58:00;;;;;;;9.10;4.72;;;;;;;0.13;48.83;94310.16;5053271;28;20571;-72
2023/01/31 03:00:26;;;;;;;7.10;3.55;;;;;;;0.11;49.58;94305.16;5051882;28;20020;-73
2023/01/31 03:02:52;;;;;;;7.47;4.15;;;;;;;0.20;49.61;94314.06;5015874;28;20048;-72
2023/01/31 03:05:18;;;;;;;8.00;4.72;;;;;;;0.16;50.13;94331.25;4999515;28;20033;-74
2023/01/31 03:07:49;;;;;;;8.40;4.47;;;;;;;0.22;50.24;94319.91;5015926;28;20029;-72
2023/01/31 03:10:50;;;;;;;7.30;3.95;;;;;;;0.35;49.77;94327.81;5016151;28;20060;-73
2023/01/31 03:13:34;;;;;;;8.55;4.78;;;;;;;0.21;50.61;94323.38;5043746;28;20037;-73
2023/01/31 03:19:26;;;;;;;9.55;4.65;;;;;;;0.34;51.03;94349.97;5051358;28;20048;-72
2023/01/31 03:21:56;;;;;;;9.35;4.75;;;;;;;0.36;50.84;94347.31;5036020;28;20037;-72
2023/01/31 03:24:25;;;;;;;8.57;4.90;;;;;;;0.17;51.61;94355.94;5035225;28;20538;-72
2023/01/31 03:26:53;;;;;;;11.70;6.22;;;;;;;0.22;53.52;94361.66;5036110;28;20053;-74
2023/01/31 03:29:19;;;;;;;9.30;5.30;;;;;;;0.16;53.43;94351.69;5024855;28;20550;-72
2023/01/31 03:31:52;;;;;;;11.15;5.07;;;;;;;0.25;53.59;94373.41;5028352;28;20040;-72
2023/01/31 03:34:17;;;;;;;10.57;5.40;;;;;;;0.26;53.91;94354.66;5019370;28;20037;-73
2023/01/31 03:36:49;;;;;;;9.82;5.38;;;;;;;0.29;54.62;94369.81;5032385;28;20033;-72
2023/01/31 03:39:14;;;;;;;;;;;;;;;0.30;54.07;94380.84;5033461;28;20030;-73
2023/01/31 03:41:51;;;;;;;7.68;4.47;;;;;;;0.08;56.21;94365.75;5032895;28;19924;-72
2023/01/31 03:44:43;;;;;;;8.63;5.05;;;;;;;0.25;56.69;94380.25;5031498;28;20033;-72
2023/01/31 03:47:19;;;;;;;9.13;4.70;;;;;;;0.20;56.11;94389.00;5051019;28;20491;-72
2023/01/31 03:49:44;;;;;;;9.43;4.40;;;;;;;0.10;57.50;94379.28;5036027;28;20427;-72
2023/01/31 03:52:10;;;;;;;11.90;5.50;;;;;;;0.15;58.11;94397.78;5035108;28;20040;-72
2023/01/31 03:54:39;;;;;;;11.95;5.25;;;;;;;0.22;57.56;94399.13;5030663;28;20037;-72
2023/01/31 03:57:12;;;;;;;10.25;5.28;;;;;;;0.16;57.52;94407.09;4998783;28;20534;-72
2023/01/31 03:59:38;;;;;;;11.63;5.90;;;;;;;0.14;58.06;94411.44;5031979;28;20514;-72
2023/01/31 04:02:05;;;;;;;12.40;5.72;;;;;;;0.11;58.38;94393.72;5043688;28;20037;-72
2023/01/31 04:04:31;;;;;;;12.20;6.15;;;;;;;0.16;59.30;94410.47;5034645;28;20025;-72
2023/01/31 04:06:59;;;;;;;12.63;6.50;;;;;;;0.15;59.65;94410.56;5018267;28;20029;-72
2023/01/31 04:09:24;;;;;;;13.20;6.60;;;;;;;0.03;59.73;94408.56;5025157;28;20037;-73
2023/01/31 04:11:50;;;;;;;13.70;7.15;;;;;;;0.11;59.94;94409.03;5032167;28;20043;-72
2023/01/31 04:14:15;;;;;;;13.15;7.68;;;;;;;0.19;60.58;94412.88;4998193;28;20486;-73
2023/01/31 04:16:41;;;;;;;13.10;8.02;;;;;;;0.16;60.05;94413.03;5046868;28;20498;-72
2023/01/31 04:19:06;;;;;;;12.98;7.65;;;;;;;0.20;60.36;94429.03;5050833;28;20025;-72
2023/01/31 04:21:32;;;;;;;10.85;5.47;;;;;;;0.02;60.79;94427.38;5038066;28;20476;-72
2023/01/31 04:23:57;;;;;;;11.50;6.85;;;;;;;0.14;61.05;94434.44;5031138;28;20484;-72
2023/01/31 04:26:23;;;;;;;14.55;8.50;;;;;;;0.28;60.41;94452.50;5028848;28;20115;-73
2023/01/31 04:28:48;;;;;;;12.32;6.90;;;;;;;0.22;60.97;94447.66;4997781;28;20029;-72
2023/01/31 04:31:14;;;;;;;12.40;6.88;;;;;;;-0.14;61.17;94409.38;5031815;28;20037;-72
2023/01/31 04:33:39;;;;;;;13.55;7.28;;;;;;;0.15;61.33;94441.22;5044396;28;20043;-72
2023/01/31 04:36:07;;;;;;;11.77;6.25;;;;;;;0.02;61.97;94427.38;5050838;28;20045;-72
2023/01/31 04:38:32;;;;;;;10.65;6.45;;;;;;;0.10;62.18;94446.53;5017539;28;20059;-73
2023/01/31 04:40:59;;;;;;;21.05;11.70;;;;;;;-0.16;62.81;94454.63;5050227;28;20029;-73
2023/01/31 04:43:24;;;;;;;12.68;7.20;;;;;;;-0.20;62.37;94432.66;5050017;28;20068;-72
2023/01/31 04:45:50;;;;;;;12.63;6.75;;;;;;;-0.08;62.46;94461.00;5050214;28;20060;-73
2023/01/31 04:48:15;;;;;;;11.68;6.00;;;;;;;-0.14;63.15;94465.56;5050365;28;20482;-72
2023/01/31 04:50:41;;;;;;;12.65;7.28;;;;;;;-0.16;63.90;94467.38;5032622;28;20071;-72
2023/01/31 04:53:07;;;;;;;10.40;6.88;;;;;;;-0.28;63.03;94456.84;5031396;28;20392;-72
2023/01/31 04:55:33;;;;;;;14.13;7.85;;;;;;;-0.23;63.45;94457.44;5045143;28;20104;-72
2023/01/31 04:57:59;;;;;;;11.32;6.85;;;;;;;-0.15;63.45;94469.84;5049140;28;20108;-72
2023/01/31 05:00:24;;;;;;;12.15;6.80;;;;;;;-0.24;63.55;94457.50;5032484;28;20028;-73
2023/01/31 05:02:50;;;;;;;11.07;6.32;;;;;;;-0.06;63.29;94487.28;5049546;28;20269;-73
2023/01/31 05:05:15;;;;;;;11.50;6.38;;;;;;;-0.26;63.41;94456.75;5049523;28;20033;-72
2023/01/31 05:07:43;;;;;;;12.02;6.75;;;;;;;-0.04;63.04;94477.81;5029795;28;20041;-72
2023/01/31 05:10:09;;;;;;;12.23;7.07;;;;;;;-0.11;64.27;94473.94;5013684;28;20021;-72
2023/01/31 05:12:34;;;;;;;14.43;6.78;;;;;;;-0.18;63.71;94457.22;5046723;28;20117;-72
2023/01/31 05:15:00;;;;;;;11.57;6.47;;;;;;;-0.27;64.15;94457.66;5047650;28;20487;-72
2023/01/31 05:17:28;;;;;;;10.13;6.40;;;;;;;-0.18;64.28;94480.19;5029986;28;20128;-72
2023/01/31 05:19:55;;;;;;;9.52;5.80;;;;;;;-0.23;63.62;94466.81;5013930;28;20026;-72
2023/01/31 05:22:21;;;;;;;10.93;5.88;;;;;;;-0.18;63.07;94467.44;5030371;28;20034;-72
2023/01/31 05:24:47;;;;;;;8.75;5.45;;;;;;;-0.16;62.46;94465.66;5013739;28;20033;-73
2023/01/31 05:27:12;;;;;;;11.98;6.20;;;;;;;-0.16;63.27;94473.31;5035838;28;20033;-73
2023/01/31 05:29:38;;;;;;;12.10;6.03;;;;;;;-0.33;63.39;94465.59;5049161;28;20033;-72
2023/01/31 05:32:03;;;;;;;10.75;5.28;;;;;;;-0.08;62.59;94483.19;5032897;28;20048;-72
2023/01/31 05:34:31;;;;;;;10.82;5.60;;;;;;;-0.16;63.15;94475.84;5030808;28;20516;-73
2023/01/31 05:36:57;;;;;;;9.45;6.10;;;;;;;-0.18;62.85;94470.00;5031208;28;20072;-72
2023/01/31 05:39:22;;;;;;;12.68;7.35;;;;;;;0.07;62.29;94476.50;5029289;28;20029;-73
2023/01/31 05:41:48;;;;;;;9.60;5.88;;;;;;;0.04;62.22;94490.25;5029277;28;20064;-72
2023/01/31 05:44:15;;;;;;;9.80;5.93;;;;;;;-0.17;62.87;94478.47;5030618;28;20044;-72
2023/01/31 05:46:40;;;;;;;11.50;6.07;;;;;;;0.05;62.60;94493.63;5015208;28;20049;-72
2023/01/31 05:49:06;;;;;;;10.75;5.45;;;;;;;-0.06;62.75;94487.28;5049492;28;20021;-72
2023/01/31 05:51:31;;;;;;;10.25;5.47;;;;;;;0.07;62.65;94499.50;5049473;28;20059;-73
2023/01/31 05:53:57;;;;;;;9.68;5.47;;;;;;;0.23;61.93;94497.88;5049590;28;20078;-73
2023/01/31 05:56:22;;;;;;;11.35;5.20;;;;;;;0.11;62.58;94494.19;5048975;28;20037;-72
2023/01/31 05:58:49;;;;;;;10.10;5.90;;;;;;;0.15;61.99;94516.13;5044625;28;20034;-72
2023/01/31 06:01:25;;;;;;;9.50;6.22;;;;;;;-0.17;62.73;94486.94;5039356;28;20041;-73
2023/01/31 06:03:51;;;;;;;11.40;6.43;;;;;;;0.18;62.84;94502.38;5014151;28;20526;-72
2023/01/31 06:06:16;;;;;;;10.13;6.22;;;;;;;0.20;62.20;94487.81;5031226;28;20033;-72
2023/01/31 06:08:42;;;;;;;10.68;6.43;;;;;;;0.32;61.79;94507.66;5020512;28;20032;-72
2023/01/31 06:11:09;;;;;;;11.20;6.32;;;;;;;0.14;62.50;94508.50;5040417;28;20036;-71
2023/01/31 06:13:35;;;;;;;11.98;6.10;;;;;;;0.26;62.04;94507.94;5040699;28;20065;-71
2023/01/31 06:16:01;;;;;;;13.05;6.40;;;;;;;0.24;62.33;94508.91;5035215;28;20045;-72
2023/01/31 06:18:26;;;;;;;10.55;6.38;;;;;;;0.14;62.23;94498.28;5032032;28;20032;-72
2023/01/31 06:20:52;;;;;;;28.20;14.43;;;;;;;0.19;62.85;94522.72;5036396;28;20128;-73
2023/01/31 06:23:18;;;;;;;23.38;11.43;;;;;;;0.09;63.03;94501.09;5036857;28;20040;-72
2023/01/31 06:25:44;;;;;;;9.43;5.85;;;;;;;0.25;62.45;94492.69;5029541;28;20049;-72
2023/01/31 06:28:09;;;;;;;14.65;7.50;;;;;;;0.22;62.69;94496.19;5041331;28;20068;-72
2023/01/31 06:30:35;;;;;;;12.20;6.53;;;;;;;0.28;62.69;94493.38;5042631;28;20025;-73
2023/01/31 06:33:01;;;;;;;22.35;11.15;;;;;;;0.43;62.59;94515.63;5043718;28;20025;-72
2023/01/31 06:35:26;;;;;;;15.85;8.65;;;;;;;0.44;62.90;94517.28;5037892;28;20043;-73
2023/01/31 06:37:52;;;;;;;17.20;9.00;;;;;;;0.51;62.72;94522.94;5035776;28;20585;-73
2023/01/31 06:40:17;;;;;;;20.58;9.95;;;;;;;0.51;62.70;94510.16;5043421;28;20029;-73
2023/01/31 06:42:42;;;;;;;14.65;7.80;;;;;;;0.44;63.33;94501.94;5043663;28;20084;-72
2023/01/31 06:45:09;;;;;;;11.90;7.03;;;;;;;0.57;63.04;94516.69;5047979;28;20025;-73
2023/01/31 06:47:34;;;;;;;11.18;6.72;;;;;;;0.40;62.97;94495.34;5039685;28;20029;-72
2023/01/31 06:49:59;;;;;;;12.18;6.65;;;;;;;0.52;62.32;94504.13;5031888;28;20491;-72
2023/01/31 06:52:25;;;;;;;11.18;7.18;;;;;;;0.57;62.62;94521.81;5032821;28;20037;-73
2023/01/31 06:54:50;;;;;;;11.77;7.45;;;;;;;0.61;62.54;94529.28;5036793;28;20030;-73
2023/01/31 06:57:16;;;;;;;10.60;6.82;;;;;;;0.54;63.16;94525.34;5023216;28;20033;-73
2023/01/31 06:59:41;;;;;;;10.27;5.95;;;;;;;0.67;62.67;94530.69;5041183;28;20471;-72
2023/01/31 07:02:09;;;;;;;9.88;5.88;;;;;;;0.48;62.97;94530.75;5038218;28;20487;-72
2023/01/31 07:04:34;;;;;;;11.20;6.60;;;;;;;0.59;63.00;94535.34;5029132;28;20116;-72
2023/01/31 07:06:59;;;;;;;12.13;6.90;;;;;;;0.43;62.51;94496.91;5044461;28;20060;-72
2023/01/31 07:09:25;;;;;;;12.52;7.13;;;;;;;0.63;62.86;94527.44;5049945;28;20022;-72
2023/01/31 07:11:50;;;;;;;12.35;7.45;;;;;;;0.49;62.64;94491.50;5043195;28;20091;-72
2023/01/31 07:14:16;;;;;;;14.93;8.30;;;;;;;0.58;62.79;94508.13;5052840;28;20037;-72
2023/01/31 07:16:41;;;;;;;14.07;8.38;;;;;;;0.75;62.44;94513.22;5036619;28;20029;-73
2023/01/31 07:19:07;;;;;;;13.40;7.47;;;;;;;0.77;61.86;94516.53;5021072;28;20560;-72
2023/01/31 07:21:34;;;;;;;10.02;6.10;;;;;;;0.73;61.68;94507.38;5051070;28;20037;-72
2023/01/31 07:24:00;;;;;;;8.73;5.53;;;;;;;0.81;61.54;94525.72;5042011;28;20035;-72
2023/01/31 07:26:25;;;;;;;11.90;6.25;;;;;;;0.85;61.66;94524.66;5032034;28;20053;-73
2023/01/31 07:28:51;;;;;;;10.73;6.50;;;;;;;0.73;61.63;94506.56;5018755;28;20509;-73
2023/01/31 07:31:17;;;;;;;13.88;7.47;;;;;;;0.92;61.43;94532.03;5049002;28;20037;-78
2023/01/31 07:33:42;;;;;;;10.45;6.20;;;;;;;0.94;61.17;94520.00;5043374;28;20044;-73
2023/01/31 07:36:11;;;;;;;10.98;6.85;;;;;;;0.87;61.87;94529.72;5033160;28;20037;-73
2023/01/31 07:38:36;;;;;;;9.95;6.05;;;;;;;0.93;61.46;94529.41;5027274;28;20037;-73
2023/01/31 07:41:02;;;;;;;11.07;6.38;;;;;;;0.90;62.18;94532.13;5030902;28;20022;-73
2023/01/31 07:43:28;;;;;;;10.88;6.97;;;;;;;0.99;61.76;94533.41;5013200;28;20041;-73
2023/01/31 07:45:53;;;;;;;21.13;10.05;;;;;;;1.02;61.98;94540.91;5029722;28;20030;-73
2023/01/31 07:48:22;;;;;;;23.92;11.65;;;;;;;0.89;62.45;94538.13;5030972;28;20563;-73
2023/01/31 07:50:52;;;;;;;24.00;12.25;;;;;;;0.98;62.66;94534.31;4997502;28;20025;-73
2023/01/31 07:53:18;;;;;;;13.20;8.32;;;;;;;1.04;62.79;94536.56;4996911;28;20112;-73
2023/01/31 07:55:46;;;;;;;12.52;8.45;;;;;;;1.09;62.29;94548.22;5013066;28;20181;-73
2023/01/31 07:58:13;;;;;;;15.30;9.00;;;;;;;1.13;62.47;94543.75;5031657;28;20152;-73
2023/01/31 08:03:35;;;;;;;12.45;7.07;;;;;;;1.04;62.48;94527.13;5017195;28;20036;-73
2023/01/31 08:06:08;;;;;;;12.80;7.80;;;;;;;1.18;62.27;94526.44;5016399;28;20034;-73
2023/01/31 08:08:34;;;;;;;10.85;7.18;;;;;;;1.36;62.19;94545.16;4998513;28;20519;-73
2023/01/31 08:11:00;;;;;;;16.40;9.45;;;;;;;1.25;62.51;94543.13;5014849;28;20479;-73
2023/01/31 08:13:25;;;;;;;9.27;6.05;;;;;;;1.27;62.89;94537.94;4998263;28;20038;-73
2023/01/31 08:15:52;;;;;;;9.95;6.25;;;;;;;1.40;62.04;94544.09;5032269;28;20033;-73
2023/01/31 08:18:17;;;;;;;18.98;10.43;;;;;;;1.43;61.83;94546.50;5032234;28;20108;-73
2023/01/31 08:20:43;;;;;;;15.20;7.85;;;;;;;1.46;61.90;94532.72;5031115;28;20571;-73
2023/01/31 08:23:08;;;;;;;32.05;17.08;;;;;;;1.31;62.54;94532.59;5032095;28;20458;-73
2023/01/31 08:25:35;;;;;;;22.70;13.15;;;;;;;1.54;62.35;94539.09;5030735;28;20057;-73
2023/01/31 08:28:00;;;;;;;18.17;10.50;;;;;;;1.40;62.71;94538.16;5032067;28;20032;-73
2023/01/31 08:30:26;;;;;;;13.50;7.30;;;;;;;1.43;62.20;94543.13;4998020;28;20030;-72
2023/01/31 08:32:51;;;;;;;11.20;7.22;;;;;;;1.43;62.47;94538.00;5030835;28;20026;-73
2023/01/31 08:35:17;;;;;;;20.20;11.45;;;;;;;1.40;61.91;94540.72;5030757;28;20045;-73
2023/01/31 08:37:42;;;;;;;23.80;13.55;;;;;;;1.28;62.56;94525.09;5030909;28;20041;-73
2023/01/31 08:40:08;;;;;;;13.98;8.45;;;;;;;1.64;61.15;94536.03;5032177;28;20503;-73
2023/01/31 08:42:34;;;;;;;14.43;9.18;;;;;;;1.55;61.86;94543.28;5031666;28;20033;-73
2023/01/31 08:44:59;;;;;;;9.68;6.45;;;;;;;1.57;60.95;94545.78;5014147;28;20447;-73
2023/01/31 08:47:25;;;;;;;11.32;8.10;;;;;;;1.46;61.69;94527.59;5030625;28;20021;-73
2023/01/31 08:49:50;;;;;;;14.32;8.43;;;;;;;1.50;61.54;94532.47;5030398;28;20034;-73
2023/01/31 08:52:15;;;;;;;15.90;10.15;;;;;;;1.56;61.44;94533.88;5030602;28;20452;-73
2023/01/31 08:54:41;;;;;;;12.30;7.65;;;;;;;1.50;61.73;94541.88;5030220;28;20420;-73
2023/01/31 08:57:06;;;;;;;41.72;18.70;;;;;;;1.58;61.66;94524.38;5013844;28;20048;-73
2023/01/31 08:59:32;;;;;;;42.33;20.17;;;;;;;1.57;62.02;94545.78;5031438;28;20091;-73
2023/01/31 09:01:57;;;;;;;43.83;22.20;;;;;;;1.54;61.77;94546.78;5030387;28;20033;-73
2023/01/31 09:04:22;;;;;;;19.17;10.98;;;;;;;1.41;61.94;94525.25;5030197;28;20063;-73
2023/01/31 09:06:48;;;;;;;40.53;23.08;;;;;;;1.57;61.74;94520.19;5030319;28;20495;-73
2023/01/31 09:09:14;;;;;;;32.58;16.58;;;;;;;1.61;61.80;94542.16;5030146;28;20491;-73
2023/01/31 09:11:39;;;;;;;39.35;20.08;;;;;;;1.71;60.49;94538.22;5031530;28;20471;-73
2023/01/31 09:14:05;;;;;;;25.42;10.80;;;;;;;1.64;60.96;94526.63;5031203;28;20036;-73
2023/01/31 09:16:30;;;;;;;21.70;11.48;;;;;;;1.58;60.97;94536.38;5012815;28;20040;-73
2023/01/31 09:18:56;;;;;;;40.55;20.85;;;;;;;1.73;61.00;94543.25;5013529;28;20034;-73
2023/01/31 09:21:22;;;;;;;21.60;13.52;;;;;;;1.65;60.55;94523.16;5030027;28;20029;-73
2023/01/31 09:23:48;;;;;;;17.90;11.82;;;;;;;1.59;60.39;94518.38;5013578;28;20041;-73
2023/01/31 09:26:14;;;;;;;12.68;10.13;;;;;;;1.61;60.49;94521.66;5013465;28;20052;-73
2023/01/31 09:28:44;;;;;;;10.77;6.65;;;;;;;1.53;60.11;94513.56;5013695;28;20025;-73
2023/01/31 09:31:11;;;;;;;12.95;8.98;;;;;;;1.65;59.77;94532.59;5014028;28;20045;-73
2023/01/31 09:33:36;;;;;;;6.57;4.93;;;;;;;1.72;59.00;94529.59;5013399;28;20043;-73
2023/01/31 09:36:06;;;;;;;8.20;5.60;;;;;;;1.60;59.58;94526.88;5031009;28;20037;-73
2023/01/31 09:38:32;;;;;;;9.20;6.45;;;;;;;1.57;60.01;94520.19;5029693;28;20040;-73
2023/01/31 09:41:00;;;;;;;10.18;7.10;;;;;;;1.76;59.99;94523.44;5029685;28;20038;-73
2023/01/31 09:43:28;;;;;;;10.18;7.20;;;;;;;1.86;58.80;94510.94;5013021;28;20048;-73
2023/01/31 09:45:55;;;;;;;8.23;5.72;;;;;;;1.92;58.49;94502.09;5013357;28;20036;-73
2023/01/31 09:48:27;;;;;;;12.40;8.65;;;;;;;1.96;59.01;94503.59;5013307;28;20048;-73
2023/01/31 09:50:55;;;;;;;12.95;8.00;;;;;;;2.03;58.44;94481.84;5029663;28;20048;-73
2023/01/31 09:53:22;;;;;;;19.38;9.32;;;;;;;2.04;59.33;94496.31;5013325;28;20056;-73
2023/01/31 09:56:21;;;;;;;11.63;6.72;;;;;;;2.24;58.99;94502.91;4996910;28;20033;-73
2023/01/31 09:59:20;;;;;;;11.02;7.15;;;;;;;2.47;58.68;94504.19;5029454;28;20021;-73
2023/01/31 10:02:21;;;;;;;26.63;11.32;;;;;;;2.45;58.50;94516.28;5025718;28;20522;-73
2023/01/31 10:05:04;;;;;;;16.40;8.53;;;;;;;2.31;58.03;94503.41;5029433;28;20048;-73
2023/01/31 10:07:40;;;;;;;9.35;5.30;;;;;;;2.37;57.19;94490.25;5029503;28;20034;-73
2023/01/31 10:10:33;;;;;;;8.07;6.20;;;;;;;2.57;57.35;94494.25;5013286;28;20534;-73
2023/01/31 10:13:02;;;;;;;12.60;6.50;;;;;;;2.82;56.20;94488.56;5029185;28;20043;-73
2023/01/31 10:15:37;;;;;;;13.68;6.50;;;;;;;2.81;56.89;94500.53;5013190;28;20041;-73
2023/01/31 10:18:15;;;;;;;15.20;6.97;;;;;;;2.71;57.49;94488.34;5029366;28;20116;-73
2023/01/31 10:20:45;;;;;;;15.20;8.48;;;;;;;2.51;57.87;94499.72;5030775;28;20084;-73
2023/01/31 10:23:25;;;;;;;6.87;4.80;;;;;;;2.50;57.17;94495.50;5029313;28;20026;-73
2023/01/31 10:26:08;;;;;;;16.15;7.38;;;;;;;2.38;57.85;94494.47;5013317;28;20066;-73
2023/01/31 10:28:59;;;;;;;16.58;7.72;;;;;;;2.29;58.24;94472.75;5032587;28;20101;-73
2023/01/31 10:31:44;;;;;;;13.53;7.40;;;;;;;2.52;57.92;94488.56;5034483;28;20506;-73
2023/01/31 10:34:27;;;;;;;14.15;7.90;;;;;;;2.49;57.25;94470.78;5034120;28;20852;-73
2023/01/31 10:37:03;;;;;;;10.35;6.88;;;;;;;2.55;56.58;94450.75;5000534;28;20048;-73
2023/01/31 10:39:33;;;;;;;9.68;6.32;;;;;;;2.47;56.84;94460.59;5032888;28;20124;-73
2023/01/31 10:42:01;;;;;;;9.00;5.13;;;;;;;2.55;56.35;94473.00;5000286;28;20045;-73
2023/01/31 10:44:54;;;;;;;12.00;7.28;;;;;;;2.50;56.72;94470.69;5032705;28;20037;-73
2023/01/31 10:47:21;;;;;;;15.00;7.72;;;;;;;2.38;56.48;94461.97;5030447;28;20042;-73
2023/01/31 10:49:48;;;;;;;19.17;9.05;;;;;;;2.75;55.95;94466.72;5032740;28;20033;-73
2023/01/31 10:52:27;;;;;;;14.00;7.25;;;;;;;2.73;56.30;94458.28;5034286;28;20040;-73
2023/01/31 10:55:32;;;;;;;12.48;6.65;;;;;;;2.67;55.77;94470.56;5032600;28;20041;-73
2023/01/31 10:57:58;;;;;;;6.05;3.90;;;;;;;2.64;55.69;94478.41;5033806;28;20029;-73
2023/01/31 11:00:29;;;;;;;6.20;4.40;;;;;;;2.51;56.95;94484.34;5032659;28;20545;-73
2023/01/31 11:02:56;;;;;;;7.10;4.80;;;;;;;2.48;57.38;94495.63;5016551;28;20494;-73
2023/01/31 11:05:23;;;;;;;9.38;6.03;;;;;;;2.53;57.15;94485.06;5032434;28;20026;-74
2023/01/31 11:07:49;;;;;;;7.35;4.88;;;;;;;2.64;56.63;94478.41;5016225;28;20112;-73
2023/01/31 11:10:30;;;;;;;8.05;4.82;;;;;;;2.66;57.65;94475.78;5015977;28;20042;-73
2023/01/31 11:13:03;;;;;;;8.70;5.15;;;;;;;2.67;56.78;94483.41;5032388;28;20561;-73
2023/01/31 11:15:34;;;;;;;13.02;5.80;;;;;;;2.62;57.37;94477.69;5032283;28;20029;-74
2023/01/31 11:18:00;;;;;;;;;;;;;;;2.68;57.82;94490.16;5016384;28;20116;-73
2023/01/31 11:20:34;;;;;;;9.63;4.60;;;;;;;2.36;57.37;94462.97;5032260;28;19996;-73
2023/01/31 11:23:00;;;;;;;7.70;5.18;;;;;;;2.56;57.69;94475.47;5015895;28;20499;-73
2023/01/31 11:25:26;;;;;;;8.60;5.72;;;;;;;2.29;57.92;94480.44;5015585;28;20077;-73
2023/01/31 11:27:53;;;;;;;11.48;6.13;;;;;;;2.34;59.22;94490.41;5015814;28;20037;-73
2023/01/31 11:30:22;;;;;;;9.07;5.78;;;;;;;2.39;58.81;94490.97;5015647;28;20025;-73
2023/01/31 11:32:48;;;;;;;8.75;5.60;;;;;;;2.31;58.60;94470.91;5032138;28;20041;-73
2023/01/31 11:35:13;;;;;;;19.98;10.18;;;;;;;2.37;59.75;94495.38;5015398;28;20025;-73
2023/01/31 11:38:02;;;;;;;10.68;5.85;;;;;;;2.22;59.41;94476.53;5033527;28;20048;-73
2023/01/31 11:40:35;;;;;;;12.68;7.03;;;;;;;2.28;59.75;94477.94;5031255;28;20018;-73
2023/01/31 11:43:03;;;;;;;12.30;6.53;;;;;;;2.37;60.23;94477.44;4999916;28;20203;-73
2023/01/31 11:45:32;;;;;;;8.60;5.38;;;;;;;2.34;60.08;94488.69;5031753;28;20025;-74
2023/01/31 11:48:07;;;;;;;14.50;7.97;;;;;;;2.18;60.45;94444.31;5031848;28;20042;-73
2023/01/31 11:50:37;;;;;;;6.57;4.90;;;;;;;2.39;60.68;94488.41;5016222;28;20458;-73